sensor_id;sensor_type;location;lat;lon;timestamp;pressure;altitude;pressure_sealevel;temperature;humidity
13235;BME280;6683;48.506;9.050;2022-10-31T00:01:38;98589.75;;;13.01;65.41
13235;BME280;6683;48.506;9.050;2022-10-31T00:04:42;98596.66;;;13.02;65.52
13235;BME280;6683;48.506;9.050;2022-10-31T00:07:45;98597.50;;;13.03;65.59
13235;BME280;6683;48.506;9.050;2022-10-31T00:10:47;98586.06;;;13.02;65.49
13235;BME280;6683;48.506;9.050;2022-10-31T00:13:49;98596.03;;;13.00;65.42
13235;BME280;6683;48.506;9.050;2022-10-31T00:16:52;98598.06;;;12.98;65.46
13235;BME280;6683;48.506;9.050;2022-10-31T00:19:56;98593.34;;;12.94;65.52
13235;BME280;6683;48.506;9.050;2022-10-31T00:22:59;98602.31;;;12.93;65.37
13235;BME280;6683;48.506;9.050;2022-10-31T00:26:02;98599.03;;;12.91;65.51
13235;BME280;6683;48.506;9.050;2022-10-31T00:29:05;98597.78;;;12.87;65.55
13235;BME280;6683;48.506;9.050;2022-10-31T00:32:08;98598.16;;;12.83;65.46
13235;BME280;6683;48.506;9.050;2022-10-31T00:35:11;98595.25;;;12.78;65.42
13235;BME280;6683;48.506;9.050;2022-10-31T00:38:13;98587.06;;;12.73;65.30
13235;BME280;6683;48.506;9.050;2022-10-31T00:41:17;98594.94;;;12.67;65.18
13235;BME280;6683;48.506;9.050;2022-10-31T00:44:20;98598.00;;;12.64;65.22
13235;BME280;6683;48.506;9.050;2022-10-31T00:47:22;98596.06;;;12.58;65.07
13235;BME280;6683;48.506;9.050;2022-10-31T00:50:27;98588.09;;;12.51;64.96
13235;BME280;6683;48.506;9.050;2022-10-31T00:53:29;98586.19;;;12.45;65.16
13235;BME280;6683;48.506;9.050;2022-10-31T00:56:31;98600.16;;;12.39;65.01
13235;BME280;6683;48.506;9.050;2022-10-31T00:59:34;98600.47;;;12.30;64.95
13235;BME280;6683;48.506;9.050;2022-10-31T01:02:36;98601.41;;;12.22;64.92
13235;BME280;6683;48.506;9.050;2022-10-31T01:05:40;98596.69;;;12.18;64.92
13235;BME280;6683;48.506;9.050;2022-10-31T01:08:43;98597.03;;;12.15;65.04
13235;BME280;6683;48.506;9.050;2022-10-31T01:11:45;98596.41;;;12.13;65.18
13235;BME280;6683;48.506;9.050;2022-10-31T01:14:48;98591.31;;;12.11;65.08
13235;BME280;6683;48.506;9.050;2022-10-31T01:17:50;98592.94;;;12.12;65.20
13235;BME280;6683;48.506;9.050;2022-10-31T01:21:03;98591.50;;;12.10;65.24
13235;BME280;6683;48.506;9.050;2022-10-31T01:24:07;98580.91;;;12.10;65.17
13235;BME280;6683;48.506;9.050;2022-10-31T01:27:10;98582.94;;;12.08;65.16
13235;BME280;6683;48.506;9.050;2022-10-31T01:30:12;98593.88;;;12.04;65.12
13235;BME280;6683;48.506;9.050;2022-10-31T01:33:14;98592.41;;;12.02;65.08
13235;BME280;6683;48.506;9.050;2022-10-31T01:36:21;98583.41;;;11.96;65.07
13235;BME280;6683;48.506;9.050;2022-10-31T01:39:24;98590.72;;;11.94;65.13
13235;BME280;6683;48.506;9.050;2022-10-31T01:42:27;98593.91;;;11.90;65.47
13235;BME280;6683;48.506;9.050;2022-10-31T01:45:29;98584.88;;;11.84;65.07
13235;BME280;6683;48.506;9.050;2022-10-31T01:48:32;98589.91;;;11.79;65.26
13235;BME280;6683;48.506;9.050;2022-10-31T01:51:38;98589.47;;;11.76;65.19
13235;BME280;6683;48.506;9.050;2022-10-31T01:54:46;98591.63;;;11.72;65.47
13235;BME280;6683;48.506;9.050;2022-10-31T01:57:54;98594.03;;;11.67;65.54
13235;BME280;6683;48.506;9.050;2022-10-31T02:01:00;98585.44;;;11.65;65.18
13235;BME280;6683;48.506;9.050;2022-10-31T02:04:04;98587.44;;;11.63;65.47
13235;BME280;6683;48.506;9.050;2022-10-31T02:07:13;98580.88;;;11.59;65.45
13235;BME280;6683;48.506;9.050;2022-10-31T02:10:17;98580.41;;;11.56;65.38
13235;BME280;6683;48.506;9.050;2022-10-31T02:13:22;98577.94;;;11.54;65.37
13235;BME280;6683;48.506;9.050;2022-10-31T02:16:26;98575.03;;;11.49;65.54
13235;BME280;6683;48.506;9.050;2022-10-31T02:19:47;98576.22;;;11.47;65.50
13235;BME280;6683;48.506;9.050;2022-10-31T02:27:09;98575.50;;;11.38;65.22
13235;BME280;6683;48.506;9.050;2022-10-31T02:30:16;98577.50;;;11.36;65.38
13235;BME280;6683;48.506;9.050;2022-10-31T02:33:25;98579.69;;;11.33;65.45
13235;BME280;6683;48.506;9.050;2022-10-31T02:36:39;98571.94;;;11.31;65.81
13235;BME280;6683;48.506;9.050;2022-10-31T02:39:50;98577.41;;;11.30;65.51
13235;BME280;6683;48.506;9.050;2022-10-31T02:43:02;98580.88;;;11.30;65.78
13235;BME280;6683;48.506;9.050;2022-10-31T02:46:13;98577.59;;;11.28;65.67
13235;BME280;6683;48.506;9.050;2022-10-31T02:49:27;98573.28;;;11.27;65.58
13235;BME280;6683;48.506;9.050;2022-10-31T02:52:35;98571.03;;;11.24;65.50
13235;BME280;6683;48.506;9.050;2022-10-31T02:55:55;98569.81;;;11.26;66.02
13235;BME280;6683;48.506;9.050;2022-10-31T02:59:02;98571.66;;;11.26;65.96
13235;BME280;6683;48.506;9.050;2022-10-31T03:02:21;98565.56;;;11.25;65.55
13235;BME280;6683;48.506;9.050;2022-10-31T03:05:45;98564.91;;;11.23;66.06
13235;BME280;6683;48.506;9.050;2022-10-31T03:08:57;98567.09;;;11.20;65.92
13235;BME280;6683;48.506;9.050;2022-10-31T03:12:07;98566.63;;;11.16;65.68
13235;BME280;6683;48.506;9.050;2022-10-31T03:15:17;98574.09;;;11.13;65.91
13235;BME280;6683;48.506;9.050;2022-10-31T03:18:26;98569.53;;;11.07;65.54
13235;BME280;6683;48.506;9.050;2022-10-31T03:21:35;98576.00;;;11.04;65.88
13235;BME280;6683;48.506;9.050;2022-10-31T03:24:39;98578.19;;;11.01;65.73
13235;BME280;6683;48.506;9.050;2022-10-31T03:27:44;98572.44;;;10.97;65.58
13235;BME280;6683;48.506;9.050;2022-10-31T03:30:48;98571.34;;;10.92;65.31
13235;BME280;6683;48.506;9.050;2022-10-31T03:33:53;98567.41;;;10.88;65.82
13235;BME280;6683;48.506;9.050;2022-10-31T03:37:02;98565.50;;;10.82;65.67
13235;BME280;6683;48.506;9.050;2022-10-31T03:40:09;98571.31;;;10.77;65.89
13235;BME280;6683;48.506;9.050;2022-10-31T03:43:17;98563.91;;;10.73;65.55
13235;BME280;6683;48.506;9.050;2022-10-31T03:46:22;98567.72;;;10.70;65.40
13235;BME280;6683;48.506;9.050;2022-10-31T03:49:25;98572.72;;;10.65;65.70
13235;BME280;6683;48.506;9.050;2022-10-31T03:52:36;98569.00;;;10.60;65.51
13235;BME280;6683;48.506;9.050;2022-10-31T03:55:47;98562.41;;;10.56;65.73
13235;BME280;6683;48.506;9.050;2022-10-31T03:58:59;98561.13;;;10.52;65.65
13235;BME280;6683;48.506;9.050;2022-10-31T04:02:06;98562.31;;;10.49;65.68
13235;BME280;6683;48.506;9.050;2022-10-31T04:05:10;98569.59;;;10.47;65.46
13235;BME280;6683;48.506;9.050;2022-10-31T04:08:19;98568.13;;;10.44;65.59
13235;BME280;6683;48.506;9.050;2022-10-31T04:11:27;98571.28;;;10.40;65.53
13235;BME280;6683;48.506;9.050;2022-10-31T04:14:32;98571.63;;;10.37;65.51
13235;BME280;6683;48.506;9.050;2022-10-31T04:17:39;98565.69;;;10.35;65.90
13235;BME280;6683;48.506;9.050;2022-10-31T04:20:42;98561.44;;;10.34;65.73
13235;BME280;6683;48.506;9.050;2022-10-31T04:23:46;98560.78;;;10.32;65.77
13235;BME280;6683;48.506;9.050;2022-10-31T04:26:49;98561.94;;;10.29;65.67
13235;BME280;6683;48.506;9.050;2022-10-31T04:29:51;98559.50;;;10.28;65.97
13235;BME280;6683;48.506;9.050;2022-10-31T04:32:54;98555.38;;;10.25;65.62
13235;BME280;6683;48.506;9.050;2022-10-31T04:35:56;98549.47;;;10.23;65.61
13235;BME280;6683;48.506;9.050;2022-10-31T04:39:00;98554.75;;;10.23;66.20
13235;BME280;6683;48.506;9.050;2022-10-31T04:42:02;98551.44;;;10.21;65.94
13235;BME280;6683;48.506;9.050;2022-10-31T04:45:06;98550.81;;;10.19;65.78
13235;BME280;6683;48.506;9.050;2022-10-31T04:48:09;98549.16;;;10.18;66.06
13235;BME280;6683;48.506;9.050;2022-10-31T04:51:11;98547.34;;;10.19;66.25
13235;BME280;6683;48.506;9.050;2022-10-31T04:54:15;98544.06;;;10.17;66.17
13235;BME280;6683;48.506;9.050;2022-10-31T04:57:17;98540.44;;;10.18;66.24
13235;BME280;6683;48.506;9.050;2022-10-31T05:00:21;98544.88;;;10.17;66.20
13235;BME280;6683;48.506;9.050;2022-10-31T05:03:24;98539.44;;;10.19;66.25
13235;BME280;6683;48.506;9.050;2022-10-31T05:06:26;98535.63;;;10.21;66.23
13235;BME280;6683;48.506;9.050;2022-10-31T05:09:30;98541.72;;;10.22;66.04
13235;BME280;6683;48.506;9.050;2022-10-31T05:12:33;98531.97;;;10.22;65.86
13235;BME280;6683;48.506;9.050;2022-10-31T05:15:35;98537.09;;;10.24;66.31
13235;BME280;6683;48.506;9.050;2022-10-31T05:18:38;98530.81;;;10.25;65.92
13235;BME280;6683;48.506;9.050;2022-10-31T05:21:40;98524.56;;;10.26;66.14
13235;BME280;6683;48.506;9.050;2022-10-31T05:24:44;98520.06;;;10.26;66.37
13235;BME280;6683;48.506;9.050;2022-10-31T05:27:48;98517.09;;;10.29;66.34
13235;BME280;6683;48.506;9.050;2022-10-31T05:30:51;98524.66;;;10.32;66.32
13235;BME280;6683;48.506;9.050;2022-10-31T05:33:53;98523.66;;;10.33;66.46
13235;BME280;6683;48.506;9.050;2022-10-31T05:36:56;98516.75;;;10.32;66.04
13235;BME280;6683;48.506;9.050;2022-10-31T05:39:59;98523.00;;;10.31;66.29
13235;BME280;6683;48.506;9.050;2022-10-31T05:43:02;98518.06;;;10.28;66.28
13235;BME280;6683;48.506;9.050;2022-10-31T05:46:04;98518.44;;;10.25;65.79
13235;BME280;6683;48.506;9.050;2022-10-31T05:49:07;98510.72;;;10.24;66.19
13235;BME280;6683;48.506;9.050;2022-10-31T05:52:09;98515.69;;;10.19;66.13
13235;BME280;6683;48.506;9.050;2022-10-31T05:55:13;98521.31;;;10.16;66.26
13235;BME280;6683;48.506;9.050;2022-10-31T05:58:16;98519.03;;;10.13;66.32
13235;BME280;6683;48.506;9.050;2022-10-31T06:01:19;98521.34;;;10.08;65.95
13235;BME280;6683;48.506;9.050;2022-10-31T06:04:21;98517.59;;;10.02;65.82
13235;BME280;6683;48.506;9.050;2022-10-31T06:07:23;98517.13;;;9.99;66.35
13235;BME280;6683;48.506;9.050;2022-10-31T06:10:27;98521.91;;;9.95;66.29
13235;BME280;6683;48.506;9.050;2022-10-31T06:13:30;98518.81;;;9.92;66.00
13235;BME280;6683;48.506;9.050;2022-10-31T06:16:33;98523.63;;;9.88;66.08
13235;BME280;6683;48.506;9.050;2022-10-31T06:19:35;98524.97;;;9.84;65.92
13235;BME280;6683;48.506;9.050;2022-10-31T06:22:38;98519.84;;;9.83;66.29
13235;BME280;6683;48.506;9.050;2022-10-31T06:25:42;98523.66;;;9.80;66.18
13235;BME280;6683;48.506;9.050;2022-10-31T06:28:44;98520.38;;;9.78;66.19
13235;BME280;6683;48.506;9.050;2022-10-31T06:31:46;98517.75;;;9.78;66.08
13235;BME280;6683;48.506;9.050;2022-10-31T06:34:48;98523.03;;;9.78;66.23
13235;BME280;6683;48.506;9.050;2022-10-31T06:37:52;98525.47;;;9.80;66.26
13235;BME280;6683;48.506;9.050;2022-10-31T06:40:56;98518.22;;;9.82;66.44
13235;BME280;6683;48.506;9.050;2022-10-31T06:43:58;98519.69;;;9.84;66.13
13235;BME280;6683;48.506;9.050;2022-10-31T06:47:01;98526.41;;;9.87;66.55
13235;BME280;6683;48.506;9.050;2022-10-31T06:50:05;98519.81;;;9.91;66.25
13235;BME280;6683;48.506;9.050;2022-10-31T06:53:09;98519.44;;;9.94;66.45
13235;BME280;6683;48.506;9.050;2022-10-31T06:56:13;98518.94;;;9.98;66.33
13235;BME280;6683;48.506;9.050;2022-10-31T06:59:16;98526.16;;;10.04;66.66
13235;BME280;6683;48.506;9.050;2022-10-31T07:02:19;98521.19;;;10.09;66.31
13235;BME280;6683;48.506;9.050;2022-10-31T07:05:21;98524.78;;;10.16;66.87
13235;BME280;6683;48.506;9.050;2022-10-31T07:08:24;98526.38;;;10.25;66.48
13235;BME280;6683;48.506;9.050;2022-10-31T07:11:28;98522.03;;;10.32;66.63
13235;BME280;6683;48.506;9.050;2022-10-31T07:14:31;98519.78;;;10.44;66.89
13235;BME280;6683;48.506;9.050;2022-10-31T07:17:34;98524.16;;;10.52;66.63
13235;BME280;6683;48.506;9.050;2022-10-31T07:20:36;98519.63;;;10.60;66.82
13235;BME280;6683;48.506;9.050;2022-10-31T07:23:39;98518.75;;;10.68;66.74
13235;BME280;6683;48.506;9.050;2022-10-31T07:26:43;98523.31;;;10.74;66.81
13235;BME280;6683;48.506;9.050;2022-10-31T07:29:47;98530.16;;;10.83;66.66
13235;BME280;6683;48.506;9.050;2022-10-31T07:32:50;98523.78;;;10.92;66.92
13235;BME280;6683;48.506;9.050;2022-10-31T07:35:53;98524.34;;;11.02;66.67
13235;BME280;6683;48.506;9.050;2022-10-31T07:38:56;98523.28;;;11.11;66.72
13235;BME280;6683;48.506;9.050;2022-10-31T07:42:01;98518.72;;;11.19;66.92
13235;BME280;6683;48.506;9.050;2022-10-31T07:45:05;98515.78;;;11.29;66.74
13235;BME280;6683;48.506;9.050;2022-10-31T07:48:08;98518.97;;;11.39;66.84
13235;BME280;6683;48.506;9.050;2022-10-31T07:51:10;98516.91;;;11.49;66.57
13235;BME280;6683;48.506;9.050;2022-10-31T07:54:13;98520.50;;;11.63;66.74
13235;BME280;6683;48.506;9.050;2022-10-31T07:57:17;98518.41;;;11.73;66.38
13235;BME280;6683;48.506;9.050;2022-10-31T08:00:20;98514.28;;;11.85;66.78
13235;BME280;6683;48.506;9.050;2022-10-31T08:03:22;98512.59;;;11.98;66.59
13235;BME280;6683;48.506;9.050;2022-10-31T08:06:25;98515.00;;;12.15;66.60
13235;BME280;6683;48.506;9.050;2022-10-31T08:09:27;98508.81;;;12.29;66.66
13235;BME280;6683;48.506;9.050;2022-10-31T08:12:31;98504.69;;;12.41;66.68
13235;BME280;6683;48.506;9.050;2022-10-31T08:15:34;98504.78;;;12.54;66.76
13235;BME280;6683;48.506;9.050;2022-10-31T08:18:39;98516.09;;;12.69;66.59
13235;BME280;6683;48.506;9.050;2022-10-31T08:21:42;98508.28;;;12.82;66.66
13235;BME280;6683;48.506;9.050;2022-10-31T08:24:45;98511.03;;;12.95;66.50
13235;BME280;6683;48.506;9.050;2022-10-31T08:27:50;98510.13;;;13.09;66.58
13235;BME280;6683;48.506;9.050;2022-10-31T08:30:53;98504.28;;;13.27;66.39
13235;BME280;6683;48.506;9.050;2022-10-31T08:33:55;98501.50;;;13.41;66.39
13235;BME280;6683;48.506;9.050;2022-10-31T08:36:58;98506.28;;;13.52;66.29
13235;BME280;6683;48.506;9.050;2022-10-31T08:40:01;98495.94;;;13.64;66.15
13235;BME280;6683;48.506;9.050;2022-10-31T08:43:08;98487.19;;;13.77;66.07
13235;BME280;6683;48.506;9.050;2022-10-31T08:46:12;98489.50;;;13.93;66.10
13235;BME280;6683;48.506;9.050;2022-10-31T08:49:14;98480.53;;;14.07;66.09
13235;BME280;6683;48.506;9.050;2022-10-31T08:52:17;98483.81;;;14.22;65.90
13235;BME280;6683;48.506;9.050;2022-10-31T08:55:19;98485.50;;;14.36;65.72
13235;BME280;6683;48.506;9.050;2022-10-31T08:58:24;98490.63;;;14.51;65.59
13235;BME280;6683;48.506;9.050;2022-10-31T09:01:26;98483.03;;;14.61;65.41
13235;BME280;6683;48.506;9.050;2022-10-31T09:04:29;98484.88;;;14.73;65.39
13235;BME280;6683;48.506;9.050;2022-10-31T09:07:31;98482.44;;;14.85;65.36
13235;BME280;6683;48.506;9.050;2022-10-31T09:10:35;98475.25;;;14.92;65.33
13235;BME280;6683;48.506;9.050;2022-10-31T09:13:40;98476.28;;;15.04;65.29
13235;BME280;6683;48.506;9.050;2022-10-31T09:16:42;98471.50;;;15.26;65.28
13235;BME280;6683;48.506;9.050;2022-10-31T09:19:44;98468.56;;;15.53;64.94
13235;BME280;6683;48.506;9.050;2022-10-31T09:22:47;98466.97;;;15.83;64.54
13235;BME280;6683;48.506;9.050;2022-10-31T09:25:52;98463.31;;;16.16;64.24
13235;BME280;6683;48.506;9.050;2022-10-31T09:28:56;98466.38;;;16.50;64.06
13235;BME280;6683;48.506;9.050;2022-10-31T09:31:59;98457.28;;;16.83;63.46
13235;BME280;6683;48.506;9.050;2022-10-31T09:35:01;98453.53;;;17.08;62.90
13235;BME280;6683;48.506;9.050;2022-10-31T09:38:06;98445.22;;;17.34;62.58
13235;BME280;6683;48.506;9.050;2022-10-31T09:41:18;98433.44;;;17.60;62.08
13235;BME280;6683;48.506;9.050;2022-10-31T09:44:32;98442.31;;;17.72;62.10
13235;BME280;6683;48.506;9.050;2022-10-31T09:47:50;98439.91;;;17.82;61.76
13235;BME280;6683;48.506;9.050;2022-10-31T09:50:57;98441.94;;;17.98;61.91
13235;BME280;6683;48.506;9.050;2022-10-31T09:54:05;98440.50;;;18.25;61.60
13235;BME280;6683;48.506;9.050;2022-10-31T09:57:14;98444.66;;;18.51;60.89
13235;BME280;6683;48.506;9.050;2022-10-31T10:00:21;98441.41;;;18.84;60.47
13235;BME280;6683;48.506;9.050;2022-10-31T10:03:32;98444.69;;;18.97;59.84
13235;BME280;6683;48.506;9.050;2022-10-31T10:06:41;98442.34;;;19.01;59.38
13235;BME280;6683;48.506;9.050;2022-10-31T10:09:45;98441.28;;;19.13;59.19
13235;BME280;6683;48.506;9.050;2022-10-31T10:16:44;98427.88;;;19.37;59.04
13235;BME280;6683;48.506;9.050;2022-10-31T10:20:25;98435.31;;;19.46;58.77
13235;BME280;6683;48.506;9.050;2022-10-31T10:23:43;98427.28;;;19.46;58.65
13235;BME280;6683;48.506;9.050;2022-10-31T10:26:58;98427.44;;;19.40;58.50
13235;BME280;6683;48.506;9.050;2022-10-31T10:30:07;98423.44;;;19.31;58.62
13235;BME280;6683;48.506;9.050;2022-10-31T10:33:19;98408.34;;;19.25;58.39
13235;BME280;6683;48.506;9.050;2022-10-31T10:36:28;98408.44;;;19.30;58.43
13235;BME280;6683;48.506;9.050;2022-10-31T10:39:38;98393.41;;;19.40;58.46
13235;BME280;6683;48.506;9.050;2022-10-31T10:42:45;98399.94;;;19.72;58.23
13235;BME280;6683;48.506;9.050;2022-10-31T10:46:28;98395.25;;;20.41;57.96
13235;BME280;6683;48.506;9.050;2022-10-31T10:49:53;98376.72;;;21.32;56.79
13235;BME280;6683;48.506;9.050;2022-10-31T10:53:02;98379.00;;;22.20;55.60
13235;BME280;6683;48.506;9.050;2022-10-31T10:56:15;98369.63;;;23.07;54.38
13235;BME280;6683;48.506;9.050;2022-10-31T10:59:21;98358.06;;;23.83;53.08
13235;BME280;6683;48.506;9.050;2022-10-31T11:02:25;98350.00;;;24.28;52.16
13235;BME280;6683;48.506;9.050;2022-10-31T11:05:35;98345.41;;;24.39;51.43
13235;BME280;6683;48.506;9.050;2022-10-31T11:08:38;98341.91;;;24.64;51.15
13235;BME280;6683;48.506;9.050;2022-10-31T11:11:41;98335.38;;;24.95;50.29
13235;BME280;6683;48.506;9.050;2022-10-31T11:14:46;98335.50;;;25.23;49.52
13235;BME280;6683;48.506;9.050;2022-10-31T11:17:51;98327.56;;;25.52;48.64
13235;BME280;6683;48.506;9.050;2022-10-31T11:20:57;98326.78;;;25.85;48.14
13235;BME280;6683;48.506;9.050;2022-10-31T11:24:07;98323.63;;;26.12;47.29
13235;BME280;6683;48.506;9.050;2022-10-31T11:27:19;98310.28;;;26.26;46.59
13235;BME280;6683;48.506;9.050;2022-10-31T11:30:24;98300.91;;;26.13;46.61
13235;BME280;6683;48.506;9.050;2022-10-31T11:33:31;98301.50;;;25.66;46.04
13235;BME280;6683;48.506;9.050;2022-10-31T11:36:39;98293.63;;;25.21;46.34
13235;BME280;6683;48.506;9.050;2022-10-31T11:39:46;98298.09;;;24.92;46.97
13235;BME280;6683;48.506;9.050;2022-10-31T11:42:57;98293.28;;;24.79;47.07
13235;BME280;6683;48.506;9.050;2022-10-31T11:46:09;98298.13;;;24.61;47.36
13235;BME280;6683;48.506;9.050;2022-10-31T11:49:18;98287.41;;;24.41;47.94
13235;BME280;6683;48.506;9.050;2022-10-31T11:52:26;98284.09;;;24.59;48.11
13235;BME280;6683;48.506;9.050;2022-10-31T11:55:35;98280.53;;;24.94;47.55
13235;BME280;6683;48.506;9.050;2022-10-31T11:58:38;98277.44;;;25.21;47.30
13235;BME280;6683;48.506;9.050;2022-10-31T12:01:47;98269.44;;;25.01;46.97
13235;BME280;6683;48.506;9.050;2022-10-31T12:05:04;98272.00;;;24.57;47.59
13235;BME280;6683;48.506;9.050;2022-10-31T12:08:12;98269.09;;;24.18;48.15
13235;BME280;6683;48.506;9.050;2022-10-31T12:11:40;98260.47;;;23.86;48.26
13235;BME280;6683;48.506;9.050;2022-10-31T12:14:56;98267.19;;;23.58;48.88
13235;BME280;6683;48.506;9.050;2022-10-31T12:18:28;98257.94;;;23.24;49.42
13235;BME280;6683;48.506;9.050;2022-10-31T12:21:59;98252.75;;;22.92;49.67
13235;BME280;6683;48.506;9.050;2022-10-31T12:25:28;98247.75;;;22.64;50.15
13235;BME280;6683;48.506;9.050;2022-10-31T12:28:54;98247.59;;;22.39;50.48
13235;BME280;6683;48.506;9.050;2022-10-31T12:32:17;98234.28;;;22.17;50.58
13235;BME280;6683;48.506;9.050;2022-10-31T12:35:45;98228.25;;;21.95;50.95
13235;BME280;6683;48.506;9.050;2022-10-31T12:39:07;98218.69;;;21.78;50.93
